createdAt,value
2022-12-31T00:00:27.004Z,77.40
2022-12-31T00:03:31.083Z,77.14
2022-12-31T00:06:35.185Z,76.94
2022-12-31T00:09:39.228Z,76.41
2022-12-31T00:12:43.157Z,75.94
2022-12-31T00:15:47.408Z,77.02
2022-12-31T00:18:51.700Z,77.99
2022-12-31T00:21:55.801Z,78.53
2022-12-31T00:24:59.842Z,78.66
2022-12-31T00:28:03.561Z,78.88
2022-12-31T00:31:07.864Z,76.88
2022-12-31T00:34:12.037Z,78.41
2022-12-31T00:37:16.231Z,77.55
2022-12-31T00:40:20.230Z,77.79
2022-12-31T00:43:24.144Z,77.15
2022-12-31T00:46:28.286Z,78.94
2022-12-31T00:49:32.350Z,78.06
2022-12-31T00:52:36.351Z,77.17
2022-12-31T00:55:40.387Z,77.56
2022-12-31T00:58:44.413Z,77.34
2022-12-31T01:01:48.827Z,77.11
2022-12-31T01:04:52.887Z,77.78
2022-12-31T01:07:56.652Z,76.76
2022-12-31T01:11:00.919Z,76.81
2022-12-31T01:14:05.246Z,76.98
2022-12-31T01:17:09.317Z,77.56
2022-12-31T01:20:13.296Z,77.57
2022-12-31T01:23:17.322Z,77.16
2022-12-31T01:26:21.301Z,76.97
2022-12-31T01:29:25.392Z,78.02
2022-12-31T01:32:29.307Z,79.13
2022-12-31T01:35:33.140Z,78.83
2022-12-31T01:38:37.130Z,78.51
2022-12-31T01:41:41.135Z,78.01
2022-12-31T01:44:45.029Z,78.68
2022-12-31T01:47:50.509Z,77.96
2022-12-31T01:50:54.301Z,77.52
2022-12-31T01:53:58.163Z,77.63
2022-12-31T01:57:02.323Z,76.73
2022-12-31T02:00:06.406Z,76.83
2022-12-31T02:03:10.342Z,76.52
2022-12-31T02:06:14.303Z,75.79
2022-12-31T02:09:18.205Z,77.36
2022-12-31T02:12:22.270Z,76.31
2022-12-31T02:15:26.504Z,76.12
2022-12-31T02:18:30.164Z,76.82
2022-12-31T02:21:37.350Z,76.57
2022-12-31T02:24:41.408Z,76.27
2022-12-31T02:27:45.415Z,76.33
2022-12-31T02:30:49.545Z,76.53
2022-12-31T02:33:53.268Z,76.92
2022-12-31T02:36:57.239Z,75.72
2022-12-31T02:40:01.138Z,76.17
2022-12-31T02:43:05.355Z,77.45
2022-12-31T02:46:09.653Z,76.79
2022-12-31T02:49:13.819Z,75.93
2022-12-31T02:52:17.823Z,76.27
2022-12-31T02:55:21.598Z,75.76
2022-12-31T02:58:25.690Z,76.16
2022-12-31T03:01:29.731Z,76.22
2022-12-31T03:04:33.669Z,75.80
2022-12-31T03:07:37.703Z,76.76
2022-12-31T03:10:41.829Z,75.20
2022-12-31T03:13:45.935Z,75.29
2022-12-31T03:16:49.715Z,74.34
2022-12-31T03:19:53.836Z,75.68
2022-12-31T03:22:57.891Z,75.77
2022-12-31T03:26:01.805Z,76.43
2022-12-31T03:29:05.735Z,77.14
2022-12-31T03:32:09.799Z,76.78
2022-12-31T03:35:14.677Z,76.21
2022-12-31T03:38:18.729Z,76.13
2022-12-31T03:41:22.987Z,76.38
2022-12-31T03:44:26.932Z,75.82
2022-12-31T03:47:31.024Z,75.69
2022-12-31T03:50:34.790Z,76.10
2022-12-31T03:53:38.768Z,76.70
2022-12-31T03:56:42.736Z,75.92
2022-12-31T03:59:46.692Z,75.12
2022-12-31T04:02:50.844Z,75.66
2022-12-31T04:05:55.082Z,76.22
2022-12-31T04:08:58.732Z,75.47
2022-12-31T04:12:02.669Z,76.08
2022-12-31T04:15:06.796Z,75.22
2022-12-31T04:18:11.222Z,74.20
2022-12-31T04:21:15.494Z,73.62
2022-12-31T04:24:19.672Z,74.69
2022-12-31T04:27:23.850Z,75.39
2022-12-31T04:30:27.496Z,75.30
2022-12-31T04:33:31.638Z,74.89
2022-12-31T04:36:35.919Z,74.93
2022-12-31T04:39:39.867Z,75.21
2022-12-31T04:42:43.750Z,75.81
2022-12-31T04:45:47.928Z,75.90
2022-12-31T04:48:52.180Z,76.07
2022-12-31T04:51:56.053Z,75.93
2022-12-31T04:54:59.895Z,75.06
2022-12-31T04:58:05.895Z,75.68
2022-12-31T05:01:09.968Z,76.76
2022-12-31T05:04:14.123Z,76.75
2022-12-31T05:07:18.730Z,76.82
2022-12-31T05:10:22.749Z,75.81
2022-12-31T05:13:32.778Z,75.87
2022-12-31T05:16:37.207Z,76.03
2022-12-31T05:19:41.318Z,76.29
2022-12-31T05:22:45.539Z,75.97
2022-12-31T05:25:49.772Z,76.66
2022-12-31T05:28:53.743Z,74.97
2022-12-31T05:31:57.891Z,74.46
2022-12-31T05:35:01.564Z,73.69
2022-12-31T05:38:05.807Z,73.88
2022-12-31T05:41:09.860Z,74.51
2022-12-31T05:44:14.473Z,74.22
2022-12-31T05:47:18.075Z,73.73
2022-12-31T05:50:22.052Z,73.76
2022-12-31T05:53:26.133Z,74.06
2022-12-31T05:56:30.079Z,73.95
2022-12-31T05:59:33.952Z,72.38
2022-12-31T06:02:38.513Z,72.98
2022-12-31T06:05:42.579Z,72.92
2022-12-31T06:08:46.558Z,73.39
2022-12-31T06:11:50.628Z,73.68
2022-12-31T06:14:54.718Z,73.87
2022-12-31T06:17:58.771Z,73.42
2022-12-31T06:21:02.859Z,73.55
2022-12-31T06:24:07.054Z,72.95
2022-12-31T06:27:11.256Z,72.94
2022-12-31T06:30:14.923Z,72.80
2022-12-31T06:33:19.207Z,73.41
2022-12-31T06:36:23.231Z,73.28
2022-12-31T06:39:27.167Z,73.07
2022-12-31T06:42:31.043Z,72.15
2022-12-31T06:45:35.252Z,73.20
2022-12-31T06:48:39.299Z,73.51
2022-12-31T06:51:43.403Z,72.73
2022-12-31T06:54:48.630Z,71.50
2022-12-31T06:57:54.549Z,72.08
2022-12-31T07:00:59.008Z,74.02
2022-12-31T07:04:03.164Z,73.74
2022-12-31T07:07:07.354Z,72.43
2022-12-31T07:10:11.296Z,72.62
2022-12-31T07:13:15.252Z,72.40
2022-12-31T07:16:19.167Z,72.70
2022-12-31T07:19:23.315Z,72.85
2022-12-31T07:22:27.240Z,71.74
2022-12-31T07:25:34.203Z,74.11
2022-12-31T07:28:37.988Z,74.44
2022-12-31T07:31:41.913Z,74.09
2022-12-31T07:34:46.274Z,74.04
2022-12-31T07:37:50.181Z,73.80
2022-12-31T07:40:54.160Z,73.10
2022-12-31T07:43:58.130Z,72.84
2022-12-31T07:47:02.385Z,72.88
2022-12-31T07:50:06.637Z,72.84
2022-12-31T07:53:11.048Z,73.17
2022-12-31T07:56:15.053Z,72.77
2022-12-31T07:59:24.399Z,73.24
2022-12-31T08:02:28.632Z,72.83
2022-12-31T08:05:32.635Z,73.01
2022-12-31T08:08:36.811Z,72.79
2022-12-31T08:11:40.997Z,72.71
2022-12-31T08:14:44.899Z,72.12
2022-12-31T08:17:48.908Z,71.92
2022-12-31T08:20:53.135Z,71.59
2022-12-31T08:23:57.892Z,71.37
2022-12-31T08:27:01.705Z,70.95
2022-12-31T08:30:05.658Z,72.41
2022-12-31T08:33:09.741Z,72.12
2022-12-31T08:36:14.822Z,72.18
2022-12-31T08:39:20.068Z,71.68
2022-12-31T08:42:24.456Z,71.79
2022-12-31T08:45:28.474Z,73.57
2022-12-31T08:48:32.304Z,73.58
2022-12-31T08:51:36.526Z,72.65
2022-12-31T08:54:40.693Z,72.09
2022-12-31T08:57:47.607Z,71.31
2022-12-31T09:00:51.737Z,71.22
2022-12-31T09:03:55.743Z,71.62
2022-12-31T09:06:59.694Z,72.02
2022-12-31T09:10:03.497Z,71.17
2022-12-31T09:13:09.217Z,70.07
2022-12-31T09:16:13.297Z,69.93
2022-12-31T09:19:17.271Z,68.95
2022-12-31T09:22:21.342Z,70.31
2022-12-31T09:25:25.601Z,69.36
2022-12-31T09:28:29.690Z,69.07
2022-12-31T09:31:33.589Z,68.09
2022-12-31T09:34:37.502Z,68.45
2022-12-31T09:37:41.552Z,68.55
2022-12-31T09:40:45.428Z,68.61
2022-12-31T09:43:57.347Z,68.04
2022-12-31T09:47:05.132Z,67.11
2022-12-31T09:50:09.173Z,67.97
2022-12-31T09:53:13.316Z,67.85
2022-12-31T09:56:35.591Z,67.09
2022-12-31T09:59:39.546Z,67.73
2022-12-31T10:02:46.209Z,67.70
2022-12-31T10:05:50.116Z,67.91
2022-12-31T10:08:54.228Z,68.26
2022-12-31T10:11:58.470Z,68.74
2022-12-31T10:15:02.113Z,68.73
2022-12-31T10:18:06.218Z,67.81
2022-12-31T10:21:10.548Z,67.51
2022-12-31T10:24:15.732Z,67.82
2022-12-31T10:27:19.778Z,67.31
2022-12-31T10:30:23.527Z,67.14
2022-12-31T10:33:27.472Z,65.79
2022-12-31T10:36:31.785Z,66.00
2022-12-31T10:39:35.663Z,65.59
2022-12-31T10:42:39.807Z,64.93
2022-12-31T10:45:45.285Z,65.77
2022-12-31T10:48:49.438Z,65.30
2022-12-31T10:51:53.379Z,66.63
2022-12-31T10:54:57.396Z,65.90
2022-12-31T10:58:04.351Z,64.85
2022-12-31T11:01:08.981Z,65.49
2022-12-31T11:04:15.768Z,64.60
2022-12-31T11:07:19.521Z,64.84
2022-12-31T11:10:23.480Z,63.76
2022-12-31T11:13:27.691Z,64.03
2022-12-31T11:16:31.923Z,63.58
2022-12-31T11:19:36.018Z,63.60
2022-12-31T11:22:40.519Z,63.77
2022-12-31T11:25:44.660Z,62.93
2022-12-31T11:28:48.705Z,63.37
2022-12-31T11:31:53.336Z,63.22
2022-12-31T11:34:57.125Z,62.96
2022-12-31T11:38:00.783Z,62.35
2022-12-31T11:41:05.126Z,63.67
2022-12-31T11:44:09.022Z,62.86
2022-12-31T11:47:13.158Z,63.40
2022-12-31T11:50:16.884Z,63.24
2022-12-31T11:53:21.595Z,63.66
2022-12-31T11:56:25.516Z,62.45
2022-12-31T11:59:29.270Z,63.83
2022-12-31T12:02:33.349Z,63.45
2022-12-31T12:05:37.801Z,63.39
2022-12-31T12:08:41.571Z,62.61
2022-12-31T12:11:45.439Z,63.15
2022-12-31T12:14:49.724Z,63.02
2022-12-31T12:17:53.770Z,63.79
2022-12-31T12:20:57.330Z,63.39
2022-12-31T12:24:01.643Z,62.48
2022-12-31T12:27:05.482Z,61.73
2022-12-31T12:30:09.280Z,61.40
2022-12-31T12:33:13.528Z,61.46
2022-12-31T12:36:17.811Z,61.87
2022-12-31T12:39:22.842Z,61.99
2022-12-31T12:42:26.703Z,64.99
2022-12-31T12:45:30.573Z,62.14
2022-12-31T12:48:37.583Z,62.17
2022-12-31T12:51:41.933Z,62.82
2022-12-31T12:54:46.519Z,62.27
2022-12-31T12:57:50.715Z,62.09
2022-12-31T13:00:54.649Z,61.23
2022-12-31T13:04:33.102Z,60.79
2022-12-31T13:07:23.106Z,61.12
2022-12-31T13:10:27.782Z,61.14
2022-12-31T13:13:31.811Z,61.51
2022-12-31T13:16:36.071Z,60.86
2022-12-31T13:19:39.901Z,60.66
2022-12-31T13:22:43.874Z,60.49
2022-12-31T13:25:47.859Z,60.35
2022-12-31T13:28:55.309Z,59.96
2022-12-31T13:31:59.558Z,60.13
2022-12-31T13:35:07.960Z,59.53
2022-12-31T13:38:13.171Z,59.73
2022-12-31T13:41:17.506Z,60.37
2022-12-31T13:44:21.679Z,61.29
2022-12-31T13:47:25.618Z,61.63
2022-12-31T13:50:29.959Z,61.73
2022-12-31T13:53:34.254Z,61.73
2022-12-31T13:56:38.055Z,62.99
2022-12-31T13:59:41.918Z,63.77
2022-12-31T14:02:46.189Z,64.16
2022-12-31T14:05:50.318Z,64.08
2022-12-31T14:08:54.700Z,63.60
2022-12-31T14:11:58.656Z,64.50
2022-12-31T14:15:02.474Z,64.17
2022-12-31T14:18:06.397Z,65.29
2022-12-31T14:21:10.378Z,63.98
2022-12-31T14:24:14.402Z,63.87
2022-12-31T14:27:18.296Z,63.75
2022-12-31T14:30:22.174Z,63.97
2022-12-31T14:33:26.397Z,64.52
2022-12-31T14:36:31.875Z,63.90
2022-12-31T14:39:35.838Z,64.25
2022-12-31T14:42:41.250Z,64.29
2022-12-31T14:45:46.700Z,66.48
2022-12-31T14:48:50.979Z,64.94
2022-12-31T14:51:55.294Z,66.03
2022-12-31T14:54:59.438Z,64.84
2022-12-31T15:01:28.121Z,64.35
2022-12-31T15:04:32.279Z,63.87
2022-12-31T15:07:36.715Z,64.64
2022-12-31T15:10:40.603Z,65.43
2022-12-31T15:13:44.520Z,66.09
2022-12-31T15:16:48.561Z,65.57
2022-12-31T15:19:52.724Z,66.25
2022-12-31T15:22:57.600Z,65.01
2022-12-31T15:26:01.428Z,66.73
2022-12-31T15:29:05.182Z,66.99
2022-12-31T15:32:10.266Z,66.46
2022-12-31T15:35:14.179Z,65.89
2022-12-31T15:38:18.591Z,67.21
2022-12-31T15:41:22.856Z,66.21
2022-12-31T15:44:26.821Z,66.61
2022-12-31T15:47:30.732Z,66.36
2022-12-31T15:50:34.777Z,65.58
2022-12-31T15:53:38.976Z,65.41
2022-12-31T15:56:42.993Z,65.12
2022-12-31T16:03:05.191Z,66.42
2022-12-31T16:06:09.454Z,65.69
2022-12-31T16:09:13.595Z,66.09
2022-12-31T16:12:17.403Z,66.16
2022-12-31T16:15:21.758Z,66.94
2022-12-31T16:18:25.922Z,67.68
2022-12-31T16:21:30.315Z,68.68
2022-12-31T16:24:48.885Z,68.03
2022-12-31T16:27:58.732Z,68.35
2022-12-31T16:31:03.110Z,68.56
2022-12-31T16:34:07.307Z,68.09
2022-12-31T16:37:11.361Z,66.63
2022-12-31T16:40:15.581Z,66.73
2022-12-31T16:43:19.621Z,66.83
2022-12-31T16:46:23.840Z,66.13
2022-12-31T16:49:27.671Z,66.82
2022-12-31T16:52:31.882Z,66.64
2022-12-31T16:55:36.117Z,67.23
2022-12-31T16:58:40.234Z,68.14
2022-12-31T17:01:44.394Z,67.85
2022-12-31T17:04:55.340Z,68.03
2022-12-31T17:08:00.077Z,69.08
2022-12-31T17:11:04.216Z,68.03
2022-12-31T17:14:08.252Z,68.99
2022-12-31T17:17:12.194Z,68.01
2022-12-31T17:20:16.139Z,68.32
2022-12-31T17:23:20.081Z,69.17
2022-12-31T17:26:25.308Z,68.47
2022-12-31T17:29:29.708Z,68.02
2022-12-31T17:32:33.861Z,67.76
2022-12-31T17:35:37.739Z,68.06
2022-12-31T17:38:41.705Z,67.83
2022-12-31T17:41:46.101Z,68.84
2022-12-31T17:44:50.352Z,68.63
2022-12-31T17:47:54.237Z,70.04
2022-12-31T17:51:00.442Z,69.88
2022-12-31T17:54:04.716Z,70.00
2022-12-31T17:57:08.605Z,70.90
2022-12-31T18:00:12.835Z,71.47
2022-12-31T18:03:16.916Z,71.21
2022-12-31T18:06:20.968Z,71.63
2022-12-31T18:09:24.817Z,72.43
2022-12-31T18:12:28.927Z,70.25
2022-12-31T18:15:32.872Z,70.50
2022-12-31T18:18:36.693Z,71.08
2022-12-31T18:21:40.813Z,72.11
2022-12-31T18:24:45.045Z,71.10
2022-12-31T18:27:48.973Z,70.09
2022-12-31T18:30:53.077Z,70.29
2022-12-31T18:33:56.976Z,70.47
2022-12-31T18:37:00.624Z,70.30
2022-12-31T18:40:04.932Z,69.85
2022-12-31T18:43:09.016Z,69.94
2022-12-31T18:46:13.109Z,70.14
2022-12-31T18:49:17.151Z,69.57
2022-12-31T18:52:21.441Z,70.27
2022-12-31T18:55:25.671Z,69.86
2022-12-31T18:58:29.581Z,69.97
2022-12-31T19:01:33.502Z,70.13
2022-12-31T19:04:37.509Z,70.87
2022-12-31T19:07:41.677Z,70.58
2022-12-31T19:10:45.769Z,71.50
2022-12-31T19:13:49.764Z,71.35
2022-12-31T19:16:55.407Z,70.89
2022-12-31T19:19:59.399Z,71.66
2022-12-31T19:23:03.479Z,71.49
2022-12-31T19:26:07.637Z,71.35
2022-12-31T19:29:11.701Z,69.97
2022-12-31T19:32:15.625Z,71.45
2022-12-31T19:35:19.818Z,71.78
2022-12-31T19:38:23.917Z,71.17
2022-12-31T19:41:28.063Z,70.89
2022-12-31T19:44:32.093Z,71.07
2022-12-31T19:47:36.146Z,70.72
2022-12-31T19:50:40.079Z,70.96
2022-12-31T19:53:44.561Z,71.48
2022-12-31T19:56:48.622Z,69.49
2022-12-31T19:59:52.666Z,71.42
2022-12-31T20:02:56.853Z,70.92
2022-12-31T20:06:00.770Z,70.68
2022-12-31T20:09:04.931Z,70.34
2022-12-31T20:12:08.841Z,71.42
2022-12-31T20:15:12.935Z,70.05
2022-12-31T20:18:16.814Z,69.19
2022-12-31T20:21:20.937Z,68.77
2022-12-31T20:24:25.181Z,69.10
2022-12-31T20:27:29.685Z,68.78
2022-12-31T20:30:33.573Z,69.05
2022-12-31T20:33:37.837Z,68.59
2022-12-31T20:36:44.044Z,69.13
2022-12-31T20:39:48.074Z,69.39
2022-12-31T20:42:52.019Z,69.56
2022-12-31T20:45:55.997Z,70.58
2022-12-31T20:49:00.232Z,70.17
2022-12-31T20:52:04.342Z,69.21
2022-12-31T20:55:08.856Z,68.48
2022-12-31T20:58:12.536Z,69.57
2022-12-31T21:01:17.110Z,69.33
2022-12-31T21:04:21.919Z,68.80
2022-12-31T21:07:25.892Z,69.17
2022-12-31T21:10:29.762Z,68.70
2022-12-31T21:13:33.666Z,69.07
2022-12-31T21:16:37.782Z,69.00
2022-12-31T21:19:41.920Z,68.86
2022-12-31T21:22:46.309Z,68.90
2022-12-31T21:25:50.175Z,68.96
2022-12-31T21:28:53.977Z,68.60
2022-12-31T21:31:57.856Z,69.09
2022-12-31T21:35:40.364Z,69.01
2022-12-31T21:38:26.454Z,69.71
2022-12-31T21:41:33.518Z,69.87
2022-12-31T21:44:37.936Z,69.52
2022-12-31T21:47:47.438Z,68.83
2022-12-31T21:50:52.087Z,68.18
2022-12-31T21:53:56.004Z,69.89
2022-12-31T21:56:59.891Z,69.79
2022-12-31T22:00:39.499Z,70.66
2022-12-31T22:03:28.492Z,70.77
2022-12-31T22:06:32.692Z,69.05
2022-12-31T22:09:37.149Z,70.10
2022-12-31T22:12:41.199Z,70.72
2022-12-31T22:15:45.437Z,72.10
2022-12-31T22:18:49.516Z,72.55
2022-12-31T22:21:53.708Z,72.31
2022-12-31T22:24:59.789Z,73.38
2022-12-31T22:28:37.035Z,73.04
2022-12-31T22:31:27.989Z,73.30
2022-12-31T22:34:32.083Z,72.64
2022-12-31T22:37:56.497Z,73.26
2022-12-31T22:40:59.869Z,72.41
2022-12-31T22:44:04.950Z,72.08
2022-12-31T22:47:09.203Z,72.62
2022-12-31T22:50:13.507Z,72.82
2022-12-31T22:53:17.583Z,72.73
2022-12-31T22:56:21.626Z,71.73
2022-12-31T22:59:25.581Z,70.27
2022-12-31T23:02:29.866Z,71.24
2022-12-31T23:05:33.641Z,70.84
2022-12-31T23:08:37.705Z,70.52
2022-12-31T23:11:41.925Z,70.74
2022-12-31T23:14:46.028Z,71.40
2022-12-31T23:17:49.939Z,71.66
2022-12-31T23:20:53.759Z,70.31
2022-12-31T23:23:57.707Z,70.29
2022-12-31T23:27:01.756Z,70.26
2022-12-31T23:30:05.784Z,69.17
2022-12-31T23:33:09.803Z,69.33
2022-12-31T23:36:13.680Z,70.60
2022-12-31T23:39:17.577Z,70.32
2022-12-31T23:42:21.592Z,69.86
2022-12-31T23:45:31.130Z,68.73
2022-12-31T23:48:37.053Z,70.09
2022-12-31T23:51:41.015Z,70.56
2022-12-31T23:54:45.036Z,71.27
2022-12-31T23:57:49.097Z,69.82
